Hauptseite
METAR-TAF:

METAR-TAF

Flughäfen :

Kuwait-Stadt, Kuwait

Flughafen Kuwait

Breite: 29-13N, Länge: 047-59E, Höhe: 55 m

Beobachtung

Neuester Wetterbericht von vor 49 Minuten, um 23:00 UTC
Wind 8 kt aus Süd/Südwest
Temperatur 33°C
Luftfeuchtigkeit 89%
Luftdruck 1000 hPa
Sichtweite: 3000 m
feuchter Dunst

METAR: OKBK 162300Z 20008KT 3000 BR NSC 33/31 Q1000 NOSIG

Zeit: 02:49 (23:49 UTC)

Prognose

Neuester Wetterbericht von vor 1 Stunde und 4 Minuten, um 22:45 UTC
Gültige Prognose vom 17 um 00 UTC bis 18 um 06 UTC
Wind 12 kt aus Süd/Südost
Sichtweite: 7000 m
Zeitweise
vom 17 um 00 UTC bis 17 um 03 UTC
Wind 3 kt aus unterschiedlichen Richtungen
Sichtweite: 3000 m
feuchter Dunst

TAF: OKBK 162245Z 1700/1806 15012KT 7000 NSC TEMPO 1700/1703 VRB03KT 3000 BR

Wetterbeobachtungen und Prognosen von mehr als 4000 Flughäfen (METAR und TAF Bericht).

Die verfügbaren Stationen werden durch gelbe und rote Markierungen auf der Karte dargestellt.

Führen Sie die Maus auf sie, um den Namen der Station zu sehen.

Darauf klicken, um die Beobachtung von Wetterbeobachtungen und Prognosen zu sehen.

Um die Karte zu ändern : klicken Sie auf den grünen Tasten mit einem schwarzen Kreuz Zum Vergrößern, auf den grünen Button mit einem Gedankenstrich zu verkleinern, oder auf die grünen Pfeile für benachbarte Karten.


METAR-TAF: